sensor_id;sensor_type;location;lat;lon;timestamp;noise_LAeq;noise_LA_min;noise_LA_max;noise_LA01;noise_LA95
46393;Laerm;32099;53.588;10.176;2022-09-09T00:01:28;41.54;32.48;63.80;;
46393;Laerm;32099;53.588;10.176;2022-09-09T00:06:53;40.79;32.46;64.58;;
46393;Laerm;32099;53.588;10.176;2022-09-09T00:09:21;38.49;32.56;63.77;;
46393;Laerm;32099;53.588;10.176;2022-09-09T00:12:00;37.21;32.83;50.31;;
46393;Laerm;32099;53.588;10.176;2022-09-09T00:14:41;37.78;32.78;53.65;;
46393;Laerm;32099;53.588;10.176;2022-09-09T00:17:33;38.50;33.01;50.56;;
46393;Laerm;32099;53.588;10.176;2022-09-09T00:22:57;37.89;32.67;54.00;;
46393;Laerm;32099;53.588;10.176;2022-09-09T00:25:31;39.22;32.88;58.69;;
46393;Laerm;32099;53.588;10.176;2022-09-09T00:27:59;39.32;32.44;61.42;;
46393;Laerm;32099;53.588;10.176;2022-09-09T00:30:27;38.73;32.84;54.59;;
46393;Laerm;32099;53.588;10.176;2022-09-09T00:33:01;38.73;32.85;54.75;;
46393;Laerm;32099;53.588;10.176;2022-09-09T00:35:37;37.42;32.95;50.68;;
46393;Laerm;32099;53.588;10.176;2022-09-09T00:38:17;38.52;33.11;49.76;;
46393;Laerm;32099;53.588;10.176;2022-09-09T00:40:58;42.31;32.48;68.35;;
46393;Laerm;32099;53.588;10.176;2022-09-09T00:43:30;39.67;32.68;64.45;;
46393;Laerm;32099;53.588;10.176;2022-09-09T00:46:19;38.33;33.20;53.44;;
46393;Laerm;32099;53.588;10.176;2022-09-09T00:49:29;39.98;33.33;60.52;;
46393;Laerm;32099;53.588;10.176;2022-09-09T00:55:05;38.10;33.79;55.61;;
46393;Laerm;32099;53.588;10.176;2022-09-09T00:57:33;38.96;33.77;63.60;;
46393;Laerm;32099;53.588;10.176;2022-09-09T01:00:20;38.10;34.03;56.98;;
46393;Laerm;32099;53.588;10.176;2022-09-09T01:08:00;37.76;33.62;58.38;;
46393;Laerm;32099;53.588;10.176;2022-09-09T01:10:51;39.52;33.93;62.95;;
46393;Laerm;32099;53.588;10.176;2022-09-09T01:13:29;38.06;33.75;57.49;;
46393;Laerm;32099;53.588;10.176;2022-09-09T01:15:57;38.19;33.81;57.91;;
46393;Laerm;32099;53.588;10.176;2022-09-09T01:18:27;49.50;33.74;69.07;;
46393;Laerm;32099;53.588;10.176;2022-09-09T01:26:41;40.48;34.20;60.93;;
46393;Laerm;32099;53.588;10.176;2022-09-09T01:29:15;40.21;34.20;60.03;;
46393;Laerm;32099;53.588;10.176;2022-09-09T01:31:55;38.77;34.18;58.12;;
46393;Laerm;32099;53.588;10.176;2022-09-09T01:34:23;38.86;33.88;60.72;;
46393;Laerm;32099;53.588;10.176;2022-09-09T01:37:02;46.57;33.98;65.80;;
46393;Laerm;32099;53.588;10.176;2022-09-09T01:39:30;38.64;34.05;59.53;;
46393;Laerm;32099;53.588;10.176;2022-09-09T01:41:56;39.97;34.16;61.80;;
46393;Laerm;32099;53.588;10.176;2022-09-09T01:44:22;39.18;33.45;61.32;;
46393;Laerm;32099;53.588;10.176;2022-09-09T01:46:48;39.99;33.62;61.25;;
46393;Laerm;32099;53.588;10.176;2022-09-09T01:49:13;38.87;34.26;50.19;;
46393;Laerm;32099;53.588;10.176;2022-09-09T01:51:41;39.00;34.59;61.36;;
46393;Laerm;32099;53.588;10.176;2022-09-09T01:54:07;39.66;34.32;59.31;;
46393;Laerm;32099;53.588;10.176;2022-09-09T01:56:59;42.59;34.03;63.74;;
46393;Laerm;32099;53.588;10.176;2022-09-09T02:02:18;40.52;34.16;63.67;;
46393;Laerm;32099;53.588;10.176;2022-09-09T02:04:47;39.16;33.81;56.56;;
46393;Laerm;32099;53.588;10.176;2022-09-09T02:07:21;38.54;34.57;48.50;;
46393;Laerm;32099;53.588;10.176;2022-09-09T02:09:58;37.98;33.43;56.82;;
46393;Laerm;32099;53.588;10.176;2022-09-09T02:12:27;38.89;33.45;62.60;;
46393;Laerm;32099;53.588;10.176;2022-09-09T02:15:01;38.41;33.46;53.69;;
46393;Laerm;32099;53.588;10.176;2022-09-09T02:17:31;37.88;33.76;51.99;;
46393;Laerm;32099;53.588;10.176;2022-09-09T02:20:07;38.54;34.61;53.06;;
46393;Laerm;32099;53.588;10.176;2022-09-09T02:22:35;38.06;34.30;45.59;;
46393;Laerm;32099;53.588;10.176;2022-09-09T02:25:07;37.75;33.91;54.51;;
46393;Laerm;32099;53.588;10.176;2022-09-09T02:27:33;37.95;34.30;49.13;;
46393;Laerm;32099;53.588;10.176;2022-09-09T02:30:00;37.97;34.22;46.05;;
46393;Laerm;32099;53.588;10.176;2022-09-09T02:32:28;38.78;34.22;53.53;;
46393;Laerm;32099;53.588;10.176;2022-09-09T02:34:59;37.39;33.90;45.67;;
46393;Laerm;32099;53.588;10.176;2022-09-09T02:37:30;38.21;34.39;47.18;;
46393;Laerm;32099;53.588;10.176;2022-09-09T02:39:58;38.42;34.80;47.58;;
46393;Laerm;32099;53.588;10.176;2022-09-09T02:42:23;38.88;34.43;48.34;;
46393;Laerm;32099;53.588;10.176;2022-09-09T02:44:49;49.29;34.85;70.67;;
46393;Laerm;32099;53.588;10.176;2022-09-09T02:47:35;39.36;35.19;50.50;;
46393;Laerm;32099;53.588;10.176;2022-09-09T02:53:05;38.88;35.36;53.89;;
46393;Laerm;32099;53.588;10.176;2022-09-09T02:55:41;39.74;35.34;55.55;;
46393;Laerm;32099;53.588;10.176;2022-09-09T02:58:13;38.80;35.30;50.77;;
46393;Laerm;32099;53.588;10.176;2022-09-09T03:00:43;40.22;35.50;51.25;;
46393;Laerm;32099;53.588;10.176;2022-09-09T03:03:11;38.51;34.81;45.88;;
46393;Laerm;32099;53.588;10.176;2022-09-09T03:05:37;40.03;35.87;49.38;;
46393;Laerm;32099;53.588;10.176;2022-09-09T03:08:03;40.35;35.34;58.14;;
46393;Laerm;32099;53.588;10.176;2022-09-09T03:10:28;47.79;35.33;67.27;;
46393;Laerm;32099;53.588;10.176;2022-09-09T03:12:53;41.56;36.40;54.86;;
46393;Laerm;32099;53.588;10.176;2022-09-09T03:15:20;52.53;36.10;71.41;;
46393;Laerm;32099;53.588;10.176;2022-09-09T03:17:45;39.14;35.67;55.10;;
46393;Laerm;32099;53.588;10.176;2022-09-09T03:20:11;41.03;35.80;57.35;;
46393;Laerm;32099;53.588;10.176;2022-09-09T03:22:37;49.26;36.09;70.69;;
46393;Laerm;32099;53.588;10.176;2022-09-09T03:25:02;40.86;36.30;51.48;;
46393;Laerm;32099;53.588;10.176;2022-09-09T03:27:28;45.63;36.93;63.67;;
46393;Laerm;32099;53.588;10.176;2022-09-09T03:29:54;40.75;36.33;52.15;;
46393;Laerm;32099;53.588;10.176;2022-09-09T03:32:20;41.87;37.71;52.11;;
46393;Laerm;32099;53.588;10.176;2022-09-09T03:34:47;41.10;37.14;50.60;;
46393;Laerm;32099;53.588;10.176;2022-09-09T03:37:15;49.86;36.38;69.05;;
46393;Laerm;32099;53.588;10.176;2022-09-09T03:39:40;41.69;37.11;51.01;;
46393;Laerm;32099;53.588;10.176;2022-09-09T03:42:05;41.59;36.72;62.00;;
46393;Laerm;32099;53.588;10.176;2022-09-09T03:44:31;45.66;36.35;60.78;;
46393;Laerm;32099;53.588;10.176;2022-09-09T03:46:56;40.44;37.27;49.39;;
46393;Laerm;32099;53.588;10.176;2022-09-09T03:49:22;49.44;37.92;69.12;;
46393;Laerm;32099;53.588;10.176;2022-09-09T03:51:48;41.54;36.41;64.01;;
46393;Laerm;32099;53.588;10.176;2022-09-09T03:54:13;41.19;36.57;56.23;;
46393;Laerm;32099;53.588;10.176;2022-09-09T03:56:38;41.53;37.07;56.25;;
46393;Laerm;32099;53.588;10.176;2022-09-09T03:59:06;41.01;36.81;58.75;;
46393;Laerm;32099;53.588;10.176;2022-09-09T04:01:31;48.29;37.03;67.84;;
46393;Laerm;32099;53.588;10.176;2022-09-09T04:03:56;41.50;36.33;62.76;;
46393;Laerm;32099;53.588;10.176;2022-09-09T04:06:24;51.04;37.78;71.99;;
46393;Laerm;32099;53.588;10.176;2022-09-09T04:08:49;41.82;38.02;58.28;;
46393;Laerm;32099;53.588;10.176;2022-09-09T04:11:15;46.88;37.91;64.64;;
46393;Laerm;32099;53.588;10.176;2022-09-09T04:13:41;42.02;37.63;51.30;;
46393;Laerm;32099;53.588;10.176;2022-09-09T04:16:09;50.39;38.54;71.40;;
46393;Laerm;32099;53.588;10.176;2022-09-09T04:18:35;45.56;38.03;61.78;;
46393;Laerm;32099;53.588;10.176;2022-09-09T04:21:01;42.50;37.75;63.24;;
46393;Laerm;32099;53.588;10.176;2022-09-09T04:23:27;43.26;37.83;64.69;;
46393;Laerm;32099;53.588;10.176;2022-09-09T04:25:54;41.68;37.07;57.88;;
46393;Laerm;32099;53.588;10.176;2022-09-09T04:28:22;43.06;38.55;60.05;;
46393;Laerm;32099;53.588;10.176;2022-09-09T04:30:48;51.41;39.83;70.53;;
46393;Laerm;32099;53.588;10.176;2022-09-09T04:33:14;44.10;39.09;63.46;;
46393;Laerm;32099;53.588;10.176;2022-09-09T04:35:43;45.77;39.21;62.18;;
46393;Laerm;32099;53.588;10.176;2022-09-09T04:38:09;47.46;40.03;64.78;;
46393;Laerm;32099;53.588;10.176;2022-09-09T04:40:34;46.39;40.00;61.61;;
46393;Laerm;32099;53.588;10.176;2022-09-09T04:43:01;43.77;40.12;59.78;;
46393;Laerm;32099;53.588;10.176;2022-09-09T04:45:30;44.04;40.43;49.88;;
46393;Laerm;32099;53.588;10.176;2022-09-09T04:47:56;51.24;41.11;68.72;;
46393;Laerm;32099;53.588;10.176;2022-09-09T04:50:21;49.49;41.23;64.63;;
46393;Laerm;32099;53.588;10.176;2022-09-09T04:52:46;50.29;40.62;66.91;;
46393;Laerm;32099;53.588;10.176;2022-09-09T04:55:12;45.90;41.60;63.07;;
46393;Laerm;32099;53.588;10.176;2022-09-09T04:57:38;50.50;41.26;67.89;;
46393;Laerm;32099;53.588;10.176;2022-09-09T05:00:05;44.27;41.01;55.16;;
46393;Laerm;32099;53.588;10.176;2022-09-09T05:02:31;50.05;40.88;68.18;;
46393;Laerm;32099;53.588;10.176;2022-09-09T05:04:57;45.89;40.91;61.99;;
46393;Laerm;32099;53.588;10.176;2022-09-09T05:07:23;49.30;41.66;68.04;;
46393;Laerm;32099;53.588;10.176;2022-09-09T05:09:48;49.54;41.27;64.45;;
46393;Laerm;32099;53.588;10.176;2022-09-09T05:12:15;51.27;40.63;68.57;;
46393;Laerm;32099;53.588;10.176;2022-09-09T05:14:42;50.90;42.28;66.32;;
46393;Laerm;32099;53.588;10.176;2022-09-09T05:17:07;46.95;41.17;59.94;;
46393;Laerm;32099;53.588;10.176;2022-09-09T05:19:32;49.43;42.67;72.12;;
46393;Laerm;32099;53.588;10.176;2022-09-09T05:21:57;62.79;41.98;95.39;;
46393;Laerm;32099;53.588;10.176;2022-09-09T05:24:23;52.10;42.43;68.17;;
46393;Laerm;32099;53.588;10.176;2022-09-09T05:26:48;45.35;41.86;50.82;;
46393;Laerm;32099;53.588;10.176;2022-09-09T05:29:14;53.70;41.79;69.98;;
46393;Laerm;32099;53.588;10.176;2022-09-09T05:31:39;52.18;41.83;71.44;;
46393;Laerm;32099;53.588;10.176;2022-09-09T05:34:04;49.23;43.00;61.59;;
46393;Laerm;32099;53.588;10.176;2022-09-09T05:36:30;52.91;42.70;69.90;;
46393;Laerm;32099;53.588;10.176;2022-09-09T05:38:55;48.97;42.49;64.93;;
46393;Laerm;32099;53.588;10.176;2022-09-09T05:41:20;51.17;41.97;71.02;;
46393;Laerm;32099;53.588;10.176;2022-09-09T05:43:46;45.69;41.52;59.11;;
46393;Laerm;32099;53.588;10.176;2022-09-09T05:46:22;49.86;41.85;68.12;;
46393;Laerm;32099;53.588;10.176;2022-09-09T05:48:48;49.57;41.60;66.09;;
46393;Laerm;32099;53.588;10.176;2022-09-09T05:51:22;51.81;41.76;69.08;;
46393;Laerm;32099;53.588;10.176;2022-09-09T05:53:49;45.73;41.78;53.37;;
46393;Laerm;32099;53.588;10.176;2022-09-09T05:56:24;45.39;41.92;51.29;;
46393;Laerm;32099;53.588;10.176;2022-09-09T05:58:53;49.11;41.42;67.91;;
46393;Laerm;32099;53.588;10.176;2022-09-09T06:03:50;45.54;41.23;61.13;;
46393;Laerm;32099;53.588;10.176;2022-09-09T06:06:17;55.22;41.04;78.14;;
46393;Laerm;32099;53.588;10.176;2022-09-09T06:08:45;44.40;41.43;51.18;;
46393;Laerm;32099;53.588;10.176;2022-09-09T06:11:15;48.60;40.99;65.14;;
46393;Laerm;32099;53.588;10.176;2022-09-09T06:13:41;48.26;41.65;64.12;;
46393;Laerm;32099;53.588;10.176;2022-09-09T06:16:10;45.10;41.36;57.12;;
46393;Laerm;32099;53.588;10.176;2022-09-09T06:18:36;53.30;41.85;69.34;;
46393;Laerm;32099;53.588;10.176;2022-09-09T06:21:04;51.99;41.23;70.70;;
46393;Laerm;32099;53.588;10.176;2022-09-09T06:23:30;50.05;41.04;67.75;;
46393;Laerm;32099;53.588;10.176;2022-09-09T06:28:32;57.81;41.56;93.10;;
46393;Laerm;32099;53.588;10.176;2022-09-09T06:31:02;46.30;41.33;65.46;;
46393;Laerm;32099;53.588;10.176;2022-09-09T06:33:34;52.09;41.49;66.98;;
46393;Laerm;32099;53.588;10.176;2022-09-09T06:36:00;53.55;40.94;70.36;;
46393;Laerm;32099;53.588;10.176;2022-09-09T06:38:26;49.12;43.25;59.25;;
46393;Laerm;32099;53.588;10.176;2022-09-09T06:40:58;48.25;41.31;64.81;;
46393;Laerm;32099;53.588;10.176;2022-09-09T06:43:24;50.30;39.85;69.96;;
46393;Laerm;32099;53.588;10.176;2022-09-09T06:45:59;52.30;40.36;69.19;;
46393;Laerm;32099;53.588;10.176;2022-09-09T06:48:26;55.75;40.61;73.90;;
46393;Laerm;32099;53.588;10.176;2022-09-09T06:51:11;51.48;40.65;66.04;;
46393;Laerm;32099;53.588;10.176;2022-09-09T06:53:38;50.07;39.74;67.45;;
46393;Laerm;32099;53.588;10.176;2022-09-09T06:58:35;55.46;40.17;66.81;;
46393;Laerm;32099;53.588;10.176;2022-09-09T07:01:06;49.99;40.89;62.10;;
46393;Laerm;32099;53.588;10.176;2022-09-09T07:03:31;45.45;39.41;57.09;;
46393;Laerm;32099;53.588;10.176;2022-09-09T07:05:57;52.83;39.08;87.85;;
46393;Laerm;32099;53.588;10.176;2022-09-09T07:08:23;49.13;39.67;68.13;;
46393;Laerm;32099;53.588;10.176;2022-09-09T07:10:50;42.93;38.38;54.28;;
46393;Laerm;32099;53.588;10.176;2022-09-09T07:13:16;52.25;38.03;68.33;;
46393;Laerm;32099;53.588;10.176;2022-09-09T07:15:41;52.79;37.56;72.75;;
46393;Laerm;32099;53.588;10.176;2022-09-09T07:18:07;45.96;38.50;59.12;;
46393;Laerm;32099;53.588;10.176;2022-09-09T07:20:34;52.54;37.23;74.42;;
46393;Laerm;32099;53.588;10.176;2022-09-09T07:22:59;48.19;37.70;65.56;;
46393;Laerm;32099;53.588;10.176;2022-09-09T07:25:25;51.93;38.68;67.54;;
46393;Laerm;32099;53.588;10.176;2022-09-09T07:27:53;48.19;37.97;69.49;;
46393;Laerm;32099;53.588;10.176;2022-09-09T07:30:18;53.54;37.70;67.99;;
46393;Laerm;32099;53.588;10.176;2022-09-09T07:32:44;49.58;36.71;69.64;;
46393;Laerm;32099;53.588;10.176;2022-09-09T07:35:09;52.65;37.00;69.77;;
46393;Laerm;32099;53.588;10.176;2022-09-09T07:37:36;49.47;37.31;68.11;;
46393;Laerm;32099;53.588;10.176;2022-09-09T07:40:03;42.98;37.26;58.81;;
46393;Laerm;32099;53.588;10.176;2022-09-09T07:42:28;55.38;37.84;71.75;;
46393;Laerm;32099;53.588;10.176;2022-09-09T07:44:54;42.71;36.30;56.19;;
46393;Laerm;32099;53.588;10.176;2022-09-09T07:47:20;42.38;36.73;56.73;;
46393;Laerm;32099;53.588;10.176;2022-09-09T07:49:45;52.84;36.68;73.42;;
46393;Laerm;32099;53.588;10.176;2022-09-09T07:52:11;51.84;37.04;71.97;;
46393;Laerm;32099;53.588;10.176;2022-09-09T07:54:37;41.21;36.34;56.32;;
46393;Laerm;32099;53.588;10.176;2022-09-09T07:57:02;46.96;36.82;65.54;;
46393;Laerm;32099;53.588;10.176;2022-09-09T07:59:28;41.39;35.82;53.03;;
46393;Laerm;32099;53.588;10.176;2022-09-09T08:01:54;48.91;36.23;67.17;;
46393;Laerm;32099;53.588;10.176;2022-09-09T08:04:21;41.09;35.50;55.64;;
46393;Laerm;32099;53.588;10.176;2022-09-09T08:06:49;41.13;35.75;55.14;;
46393;Laerm;32099;53.588;10.176;2022-09-09T08:09:15;50.02;35.00;70.69;;
46393;Laerm;32099;53.588;10.176;2022-09-09T08:11:42;55.24;35.98;70.88;;
46393;Laerm;32099;53.588;10.176;2022-09-09T08:14:09;55.16;36.43;71.36;;
46393;Laerm;32099;53.588;10.176;2022-09-09T08:16:40;48.09;35.58;65.31;;
46393;Laerm;32099;53.588;10.176;2022-09-09T08:19:07;48.10;35.02;64.95;;
46393;Laerm;32099;53.588;10.176;2022-09-09T08:21:33;53.26;35.59;72.89;;
46393;Laerm;32099;53.588;10.176;2022-09-09T08:24:00;52.44;35.34;68.54;;
46393;Laerm;32099;53.588;10.176;2022-09-09T08:26:35;48.16;35.03;66.30;;
46393;Laerm;32099;53.588;10.176;2022-09-09T08:29:04;52.33;34.84;72.86;;
46393;Laerm;32099;53.588;10.176;2022-09-09T08:31:35;41.30;35.52;62.44;;
46393;Laerm;32099;53.588;10.176;2022-09-09T08:34:03;51.31;36.00;68.72;;
46393;Laerm;32099;53.588;10.176;2022-09-09T08:36:31;53.77;37.07;71.33;;
46393;Laerm;32099;53.588;10.176;2022-09-09T08:38:59;47.00;35.89;64.22;;
46393;Laerm;32099;53.588;10.176;2022-09-09T08:44:16;51.89;36.28;71.87;;
46393;Laerm;32099;53.588;10.176;2022-09-09T08:49:59;54.14;35.09;72.13;;
46393;Laerm;32099;53.588;10.176;2022-09-09T08:55:50;57.13;36.08;72.58;;
46393;Laerm;32099;53.588;10.176;2022-09-09T08:58:21;46.93;35.25;68.77;;
46393;Laerm;32099;53.588;10.176;2022-09-09T09:03:58;43.88;34.80;65.00;;
46393;Laerm;32099;53.588;10.176;2022-09-09T09:09:13;38.62;34.44;45.66;;
46393;Laerm;32099;53.588;10.176;2022-09-09T09:11:47;55.33;34.91;71.74;;
46393;Laerm;32099;53.588;10.176;2022-09-09T09:14:20;53.85;35.26;73.68;;
46393;Laerm;32099;53.588;10.176;2022-09-09T09:16:54;52.48;35.10;73.72;;
46393;Laerm;32099;53.588;10.176;2022-09-09T09:19:22;53.22;36.21;73.65;;
46393;Laerm;32099;53.588;10.176;2022-09-09T09:22:16;51.49;35.09;68.63;;
46393;Laerm;32099;53.588;10.176;2022-09-09T09:24:52;54.17;35.36;70.51;;
46393;Laerm;32099;53.588;10.176;2022-09-09T09:27:27;48.43;34.62;65.63;;
46393;Laerm;32099;53.588;10.176;2022-09-09T09:29:58;40.15;35.07;52.10;;
46393;Laerm;32099;53.588;10.176;2022-09-09T09:32:26;55.38;35.57;73.18;;
46393;Laerm;32099;53.588;10.176;2022-09-09T09:34:57;58.10;39.07;70.79;;
46393;Laerm;32099;53.588;10.176;2022-09-09T09:37:29;52.73;36.99;70.43;;
46393;Laerm;32099;53.588;10.176;2022-09-09T09:39:55;42.59;34.63;65.15;;
46393;Laerm;32099;53.588;10.176;2022-09-09T09:42:20;54.72;36.88;72.14;;
46393;Laerm;32099;53.588;10.176;2022-09-09T09:44:46;51.74;36.08;70.11;;
46393;Laerm;32099;53.588;10.176;2022-09-09T09:50:00;52.84;35.37;69.85;;
46393;Laerm;32099;53.588;10.176;2022-09-09T09:52:29;54.49;34.29;71.05;;
46393;Laerm;32099;53.588;10.176;2022-09-09T09:54:56;55.71;35.10;71.65;;
46393;Laerm;32099;53.588;10.176;2022-09-09T09:57:26;42.61;35.42;53.74;;
46393;Laerm;32099;53.588;10.176;2022-09-09T10:00:03;58.26;35.27;74.79;;
46393;Laerm;32099;53.588;10.176;2022-09-09T10:02:38;51.01;35.89;69.36;;
46393;Laerm;32099;53.588;10.176;2022-09-09T10:05:19;57.97;36.84;75.38;;
46393;Laerm;32099;53.588;10.176;2022-09-09T10:07:45;55.03;35.77;71.27;;
46393;Laerm;32099;53.588;10.176;2022-09-09T10:10:30;51.84;35.96;71.47;;
46393;Laerm;32099;53.588;10.176;2022-09-09T10:13:25;44.59;35.27;71.77;;
46393;Laerm;32099;53.588;10.176;2022-09-09T10:19:02;53.27;35.70;70.66;;
46393;Laerm;32099;53.588;10.176;2022-09-09T10:21:36;54.17;36.67;71.28;;
46393;Laerm;32099;53.588;10.176;2022-09-09T10:24:27;56.58;35.28;73.21;;
46393;Laerm;32099;53.588;10.176;2022-09-09T10:27:00;51.79;35.41;71.38;;
46393;Laerm;32099;53.588;10.176;2022-09-09T10:30:12;52.47;35.02;68.97;;
46393;Laerm;32099;53.588;10.176;2022-09-09T10:32:56;49.70;35.51;66.41;;
46393;Laerm;32099;53.588;10.176;2022-09-09T10:35:30;40.50;35.43;54.87;;
46393;Laerm;32099;53.588;10.176;2022-09-09T10:40:58;54.48;35.97;73.68;;
46393;Laerm;32099;53.588;10.176;2022-09-09T10:46:23;52.21;35.68;74.39;;
46393;Laerm;32099;53.588;10.176;2022-09-09T10:49:03;55.18;36.06;74.71;;
46393;Laerm;32099;53.588;10.176;2022-09-09T10:52:09;56.05;35.25;75.41;;
46393;Laerm;32099;53.588;10.176;2022-09-09T10:57:51;55.56;37.03;70.09;;
46393;Laerm;32099;53.588;10.176;2022-09-09T11:00:25;46.54;35.93;63.62;;
46393;Laerm;32099;53.588;10.176;2022-09-09T11:03:00;53.76;35.83;71.31;;
46393;Laerm;32099;53.588;10.176;2022-09-09T11:05:41;55.55;35.67;71.94;;
46393;Laerm;32099;53.588;10.176;2022-09-09T11:08:15;55.63;35.52;73.05;;
46393;Laerm;32099;53.588;10.176;2022-09-09T11:13:43;53.60;40.70;67.90;;
46393;Laerm;32099;53.588;10.176;2022-09-09T11:16:29;55.87;36.69;68.67;;
46393;Laerm;32099;53.588;10.176;2022-09-09T11:21:59;56.60;35.78;74.37;;
46393;Laerm;32099;53.588;10.176;2022-09-09T11:24:37;57.17;35.27;75.46;;
46393;Laerm;32099;53.588;10.176;2022-09-09T11:27:10;50.52;35.08;67.87;;
46393;Laerm;32099;53.588;10.176;2022-09-09T11:30:01;55.93;35.69;72.57;;
46393;Laerm;32099;53.588;10.176;2022-09-09T11:40:30;52.82;36.02;67.77;;
46393;Laerm;32099;53.588;10.176;2022-09-09T11:43:05;48.16;36.41;66.93;;
46393;Laerm;32099;53.588;10.176;2022-09-09T11:45:34;47.67;35.95;64.16;;
46393;Laerm;32099;53.588;10.176;2022-09-09T11:48:02;51.99;35.95;68.95;;
46393;Laerm;32099;53.588;10.176;2022-09-09T11:50:33;47.98;36.06;67.16;;
46393;Laerm;32099;53.588;10.176;2022-09-09T11:53:20;52.76;36.23;68.25;;
46393;Laerm;32099;53.588;10.176;2022-09-09T11:55:48;45.00;35.73;66.68;;
46393;Laerm;32099;53.588;10.176;2022-09-09T11:58:16;42.78;36.14;52.65;;
46393;Laerm;32099;53.588;10.176;2022-09-09T12:00:44;57.16;36.42;71.84;;
46393;Laerm;32099;53.588;10.176;2022-09-09T12:06:29;49.23;35.21;69.46;;
46393;Laerm;32099;53.588;10.176;2022-09-09T12:09:05;43.36;34.65;66.00;;
46393;Laerm;32099;53.588;10.176;2022-09-09T12:11:31;40.37;35.94;51.08;;
46393;Laerm;32099;53.588;10.176;2022-09-09T12:14:00;53.01;35.81;71.44;;
46393;Laerm;32099;53.588;10.176;2022-09-09T12:16:36;58.51;36.76;76.71;;
46393;Laerm;32099;53.588;10.176;2022-09-09T12:19:14;54.66;35.59;73.99;;
46393;Laerm;32099;53.588;10.176;2022-09-09T12:21:49;57.63;36.06;71.71;;
46393;Laerm;32099;53.588;10.176;2022-09-09T12:24:27;47.24;36.22;67.77;;
46393;Laerm;32099;53.588;10.176;2022-09-09T12:27:02;51.38;36.30;70.48;;
46393;Laerm;32099;53.588;10.176;2022-09-09T12:32:25;55.83;36.38;71.92;;
46393;Laerm;32099;53.588;10.176;2022-09-09T12:35:00;46.93;35.80;64.38;;
46393;Laerm;32099;53.588;10.176;2022-09-09T12:37:36;51.37;37.21;70.02;;
46393;Laerm;32099;53.588;10.176;2022-09-09T12:42:32;48.82;36.98;66.81;;
46393;Laerm;32099;53.588;10.176;2022-09-09T12:45:03;54.71;35.82;71.38;;
46393;Laerm;32099;53.588;10.176;2022-09-09T12:47:45;54.65;35.74;74.16;;
46393;Laerm;32099;53.588;10.176;2022-09-09T12:50:20;48.28;36.22;66.22;;
46393;Laerm;32099;53.588;10.176;2022-09-09T12:52:48;50.22;37.39;71.60;;
46393;Laerm;32099;53.588;10.176;2022-09-09T12:55:20;56.99;36.19;86.87;;
46393;Laerm;32099;53.588;10.176;2022-09-09T12:57:47;52.92;37.21;69.00;;
46393;Laerm;32099;53.588;10.176;2022-09-09T13:00:24;42.98;36.89;55.96;;
46393;Laerm;32099;53.588;10.176;2022-09-09T13:02:55;46.35;36.65;69.85;;
46393;Laerm;32099;53.588;10.176;2022-09-09T13:05:33;51.06;37.23;69.24;;
46393;Laerm;32099;53.588;10.176;2022-09-09T13:08:04;65.84;41.23;82.16;;
46393;Laerm;32099;53.588;10.176;2022-09-09T13:10:34;65.49;37.31;81.43;;
46393;Laerm;32099;53.588;10.176;2022-09-09T13:13:01;53.70;37.18;71.81;;
46393;Laerm;32099;53.588;10.176;2022-09-09T13:15:28;52.57;37.49;71.39;;
46393;Laerm;32099;53.588;10.176;2022-09-09T13:17:57;51.17;38.84;68.05;;
46393;Laerm;32099;53.588;10.176;2022-09-09T13:20:24;54.99;40.95;69.09;;
46393;Laerm;32099;53.588;10.176;2022-09-09T13:22:51;46.27;42.01;56.41;;
46393;Laerm;32099;53.588;10.176;2022-09-09T13:25:24;45.99;41.19;57.84;;
46393;Laerm;32099;53.588;10.176;2022-09-09T13:28:03;54.54;43.14;69.36;;
46393;Laerm;32099;53.588;10.176;2022-09-09T13:30:34;52.04;38.64;69.41;;
46393;Laerm;32099;53.588;10.176;2022-09-09T13:35:30;46.42;41.80;57.37;;
46393;Laerm;32099;53.588;10.176;2022-09-09T13:37:55;54.79;38.45;69.79;;
46393;Laerm;32099;53.588;10.176;2022-09-09T13:40:22;46.24;37.16;65.73;;
46393;Laerm;32099;53.588;10.176;2022-09-09T13:42:52;47.98;37.74;66.59;;
46393;Laerm;32099;53.588;10.176;2022-09-09T13:45:22;48.15;38.09;65.50;;
46393;Laerm;32099;53.588;10.176;2022-09-09T13:47:48;51.24;38.56;70.12;;
46393;Laerm;32099;53.588;10.176;2022-09-09T13:50:30;51.06;37.87;69.18;;
46393;Laerm;32099;53.588;10.176;2022-09-09T13:52:58;55.83;38.09;74.57;;
46393;Laerm;32099;53.588;10.176;2022-09-09T13:55:27;50.39;43.60;66.40;;
46393;Laerm;32099;53.588;10.176;2022-09-09T13:58:02;52.99;43.70;74.59;;
46393;Laerm;32099;53.588;10.176;2022-09-09T14:00:33;54.04;48.45;65.44;;
46393;Laerm;32099;53.588;10.176;2022-09-09T14:02:59;52.93;42.57;67.88;;
46393;Laerm;32099;53.588;10.176;2022-09-09T14:05:27;43.01;38.96;50.36;;
46393;Laerm;32099;53.588;10.176;2022-09-09T14:07:53;63.92;40.57;82.38;;
46393;Laerm;32099;53.588;10.176;2022-09-09T14:10:18;48.47;41.88;63.31;;
46393;Laerm;32099;53.588;10.176;2022-09-09T14:12:44;51.12;41.62;64.91;;
46393;Laerm;32099;53.588;10.176;2022-09-09T14:15:10;59.34;45.80;74.91;;
46393;Laerm;32099;53.588;10.176;2022-09-09T14:17:36;50.20;39.22;65.19;;
46393;Laerm;32099;53.588;10.176;2022-09-09T14:20:06;50.45;38.50;68.08;;
46393;Laerm;32099;53.588;10.176;2022-09-09T14:22:32;47.41;38.31;64.73;;
46393;Laerm;32099;53.588;10.176;2022-09-09T14:24:57;52.68;38.06;68.86;;
46393;Laerm;32099;53.588;10.176;2022-09-09T14:27:23;55.26;38.33;70.96;;
46393;Laerm;32099;53.588;10.176;2022-09-09T14:29:50;50.19;39.06;65.71;;
46393;Laerm;32099;53.588;10.176;2022-09-09T14:32:16;50.59;40.40;63.92;;
46393;Laerm;32099;53.588;10.176;2022-09-09T14:34:41;53.83;50.40;65.40;;
46393;Laerm;32099;53.588;10.176;2022-09-09T14:37:06;55.61;49.92;66.93;;
46393;Laerm;32099;53.588;10.176;2022-09-09T14:39:31;53.73;49.04;64.54;;
46393;Laerm;32099;53.588;10.176;2022-09-09T14:41:57;56.23;48.97;70.11;;
46393;Laerm;32099;53.588;10.176;2022-09-09T14:44:23;55.77;50.70;66.24;;
46393;Laerm;32099;53.588;10.176;2022-09-09T14:46:48;56.72;51.28;69.10;;
46393;Laerm;32099;53.588;10.176;2022-09-09T14:49:15;56.69;50.41;70.95;;
46393;Laerm;32099;53.588;10.176;2022-09-09T14:51:41;58.94;50.38;74.80;;
46393;Laerm;32099;53.588;10.176;2022-09-09T14:54:06;57.12;51.33;72.05;;
46393;Laerm;32099;53.588;10.176;2022-09-09T14:56:32;59.03;48.41;72.78;;
46393;Laerm;32099;53.588;10.176;2022-09-09T14:59:01;55.60;49.29;68.18;;
46393;Laerm;32099;53.588;10.176;2022-09-09T15:01:29;56.67;49.71;71.16;;
46393;Laerm;32099;53.588;10.176;2022-09-09T15:03:57;55.19;49.11;67.71;;
46393;Laerm;32099;53.588;10.176;2022-09-09T15:06:23;55.05;49.69;68.39;;
46393;Laerm;32099;53.588;10.176;2022-09-09T15:08:51;53.49;49.96;67.39;;
46393;Laerm;32099;53.588;10.176;2022-09-09T15:11:17;56.18;49.87;70.67;;
46393;Laerm;32099;53.588;10.176;2022-09-09T15:13:43;53.87;49.02;67.03;;
46393;Laerm;32099;53.588;10.176;2022-09-09T15:16:11;56.26;49.53;69.48;;